createdAt,value
2019-06-26T00:00:36.650Z,100641.61
2019-06-26T00:03:05.108Z,100637.17
2019-06-26T00:05:33.746Z,100632.91
2019-06-26T00:08:02.175Z,100638.16
2019-06-26T00:10:30.685Z,100633.00
2019-06-26T00:12:59.299Z,100640.95
2019-06-26T00:15:27.798Z,100635.19
2019-06-26T00:17:56.464Z,100638.91
2019-06-26T00:20:25.200Z,100640.18
2019-06-26T00:22:53.794Z,100640.61
2019-06-26T00:25:22.318Z,100639.83
2019-06-26T00:27:50.858Z,100644.45
2019-06-26T00:30:19.873Z,100643.77
2019-06-26T00:32:48.286Z,100644.90
2019-06-26T00:35:16.984Z,100654.42
2019-06-26T00:37:45.457Z,100651.34
2019-06-26T00:40:14.291Z,100650.82
2019-06-26T00:42:43.025Z,100656.50
2019-06-26T00:45:11.817Z,100660.34
2019-06-26T00:47:40.310Z,100654.42
2019-06-26T00:50:09.404Z,100658.11
2019-06-26T00:52:38.173Z,100658.00
2019-06-26T00:55:07.243Z,100661.92
2019-06-26T00:57:35.954Z,100666.66
2019-06-26T01:00:09.988Z,100657.33
2019-06-26T01:02:38.494Z,100665.78
2019-06-26T01:05:11.145Z,100664.21
2019-06-26T01:07:39.906Z,100664.44
2019-06-26T01:10:09.277Z,100659.88
2019-06-26T01:12:37.930Z,100659.47
2019-06-26T01:15:07.103Z,100660.16
2019-06-26T01:17:35.603Z,100667.11
2019-06-26T01:20:09.127Z,100667.84
2019-06-26T01:22:37.542Z,100667.84
2019-06-26T01:25:06.638Z,100670.52
2019-06-26T01:27:35.353Z,100671.33
2019-06-26T01:30:05.523Z,100677.16
2019-06-26T01:32:33.952Z,100674.34
2019-06-26T01:35:02.587Z,100669.16
2019-06-26T01:37:31.114Z,100669.97
2019-06-26T01:39:59.640Z,100670.38
2019-06-26T01:42:28.386Z,100670.52
2019-06-26T01:44:56.818Z,100672.28
2019-06-26T01:47:25.278Z,100662.75
2019-06-26T01:49:53.751Z,100665.03
2019-06-26T01:52:22.181Z,100672.73
2019-06-26T01:54:50.775Z,100673.10
2019-06-26T01:57:19.682Z,100664.59
2019-06-26T01:59:48.117Z,100664.54
2019-06-26T02:02:16.550Z,100664.18
2019-06-26T02:04:45.025Z,100664.86
2019-06-26T02:07:13.465Z,100655.70
2019-06-26T02:09:41.918Z,100658.06
2019-06-26T02:12:10.477Z,100661.59
2019-06-26T02:14:38.912Z,100671.75
2019-06-26T02:17:07.372Z,100677.94
2019-06-26T02:19:35.905Z,100668.62
2019-06-26T02:22:04.434Z,100671.43
2019-06-26T02:24:32.923Z,100671.49
2019-06-26T02:27:01.424Z,100675.80
2019-06-26T02:29:29.964Z,100684.41
2019-06-26T02:31:58.392Z,100684.64
2019-06-26T02:34:26.878Z,100682.77
2019-06-26T02:36:55.311Z,100682.81
2019-06-26T02:39:23.738Z,100679.31
2019-06-26T02:41:52.291Z,100683.39
2019-06-26T02:44:20.783Z,100679.25
2019-06-26T02:46:49.284Z,100682.14
2019-06-26T02:49:17.904Z,100683.64
2019-06-26T02:51:46.368Z,100677.89
2019-06-26T02:54:14.793Z,100681.95
2019-06-26T02:56:43.555Z,100681.68
2019-06-26T02:59:12.109Z,100688.60
2019-06-26T03:01:40.560Z,100693.95
2019-06-26T03:04:09.019Z,100690.76
2019-06-26T03:06:37.457Z,100692.06
2019-06-26T03:09:07.336Z,100692.73
2019-06-26T03:11:35.907Z,100694.53
2019-06-26T03:14:04.432Z,100705.21
2019-06-26T03:16:32.861Z,100705.17
2019-06-26T03:19:01.417Z,100702.72
2019-06-26T03:21:29.848Z,100705.94
2019-06-26T03:23:58.344Z,100707.08
2019-06-26T03:26:26.874Z,100708.36
2019-06-26T03:28:55.302Z,100713.10
2019-06-26T03:31:23.799Z,100711.96
2019-06-26T03:33:52.272Z,100708.05
2019-06-26T03:36:20.839Z,100714.33
2019-06-26T03:38:49.277Z,100721.67
2019-06-26T03:41:17.805Z,100726.31
2019-06-26T03:43:46.377Z,100732.17
2019-06-26T03:46:14.878Z,100726.56
2019-06-26T03:48:43.347Z,100734.91
2019-06-26T03:51:14.010Z,100730.39
2019-06-26T03:53:41.996Z,100734.42
2019-06-26T03:56:10.683Z,100734.11
2019-06-26T03:58:39.113Z,100732.56
2019-06-26T04:01:07.662Z,100730.44
2019-06-26T04:03:36.164Z,100730.72
2019-06-26T04:06:04.755Z,100735.74
2019-06-26T04:08:33.181Z,100735.61
2019-06-26T04:11:01.667Z,100734.18
2019-06-26T04:13:30.093Z,100740.84
2019-06-26T04:15:58.611Z,100745.17
2019-06-26T04:18:27.169Z,100752.20
2019-06-26T04:20:55.625Z,100750.32
2019-06-26T04:23:24.070Z,100756.58
2019-06-26T04:25:52.664Z,100756.45
2019-06-26T04:28:21.092Z,100762.11
2019-06-26T04:30:49.536Z,100762.95
2019-06-26T04:33:18.012Z,100761.94
2019-06-26T04:35:46.413Z,100766.84
2019-06-26T04:38:14.920Z,100763.17
2019-06-26T04:40:43.572Z,100771.92
2019-06-26T04:43:12.015Z,100769.88
2019-06-26T04:45:40.450Z,100776.66
2019-06-26T04:48:09.105Z,100773.51
2019-06-26T04:50:37.549Z,100777.77
2019-06-26T04:53:06.118Z,100780.80
2019-06-26T04:55:34.599Z,100774.84
2019-06-26T04:58:03.022Z,100780.61
2019-06-26T05:00:31.456Z,100777.58
2019-06-26T05:03:00.143Z,100777.83
2019-06-26T05:05:38.912Z,100770.63
2019-06-26T05:07:58.781Z,100780.92
2019-06-26T05:10:27.264Z,100781.81
2019-06-26T05:12:55.677Z,100783.62
2019-06-26T05:15:24.237Z,100784.15
2019-06-26T05:17:52.926Z,100788.71
2019-06-26T05:20:21.494Z,100790.22
2019-06-26T05:22:49.933Z,100793.48
2019-06-26T05:25:18.776Z,100792.98
2019-06-26T05:27:47.233Z,100801.12
2019-06-26T05:30:16.502Z,100796.41
2019-06-26T05:32:44.960Z,100792.70
2019-06-26T05:35:13.560Z,100791.80
2019-06-26T05:37:42.069Z,100801.27
2019-06-26T05:40:11.765Z,100798.95
2019-06-26T05:42:40.356Z,100801.21
2019-06-26T05:45:09.721Z,100799.83
2019-06-26T05:47:38.285Z,100809.52
2019-06-26T05:50:10.974Z,100807.39
2019-06-26T05:52:42.422Z,100809.18
2019-06-26T05:55:10.909Z,100808.31
2019-06-26T05:57:41.819Z,100811.28
2019-06-26T06:00:10.769Z,100817.33
2019-06-26T06:02:39.369Z,100816.84
2019-06-26T06:05:08.799Z,100819.07
2019-06-26T06:07:37.405Z,100814.64
2019-06-26T06:10:06.691Z,100813.59
2019-06-26T06:12:35.122Z,100814.55
2019-06-26T06:15:07.858Z,100814.70
2019-06-26T06:17:36.887Z,100819.87
2019-06-26T06:20:06.577Z,100816.48
2019-06-26T06:22:35.012Z,100814.15
2019-06-26T06:25:03.854Z,100820.29
2019-06-26T06:27:32.369Z,100821.25
2019-06-26T06:30:00.840Z,100822.00
2019-06-26T06:32:29.497Z,100833.56
2019-06-26T06:34:57.997Z,100835.53
2019-06-26T06:37:26.528Z,100840.91
2019-06-26T06:39:55.002Z,100838.02
2019-06-26T06:42:23.524Z,100841.63
2019-06-26T06:44:51.953Z,100842.58
2019-06-26T06:47:20.587Z,100846.18
2019-06-26T06:49:49.012Z,100841.37
2019-06-26T06:52:17.444Z,100843.64
2019-06-26T06:54:46.046Z,100841.96
2019-06-26T06:57:14.656Z,100848.04
2019-06-26T06:59:43.155Z,100847.99
2019-06-26T07:02:11.660Z,100849.02
2019-06-26T07:04:40.087Z,100853.63
2019-06-26T07:07:08.525Z,100854.22
2019-06-26T07:09:36.975Z,100855.70
2019-06-26T07:12:05.539Z,100853.98
2019-06-26T07:14:33.969Z,100854.14
2019-06-26T07:17:18.906Z,100859.14
2019-06-26T07:19:32.731Z,100859.97
2019-06-26T07:22:01.149Z,100856.52
2019-06-26T07:24:29.745Z,100865.81
2019-06-26T07:26:58.204Z,100860.35
2019-06-26T07:29:26.634Z,100868.41
2019-06-26T07:31:55.170Z,100867.88
2019-06-26T07:34:23.746Z,100873.78
2019-06-26T07:36:52.177Z,100875.31
2019-06-26T07:39:20.645Z,100872.80
2019-06-26T07:41:49.071Z,100880.04
2019-06-26T07:44:17.568Z,100881.85
2019-06-26T07:46:46.020Z,100882.64
2019-06-26T07:49:14.514Z,100875.06
2019-06-26T07:51:42.943Z,100883.69
2019-06-26T07:54:11.425Z,100871.23
2019-06-26T07:56:39.898Z,100875.31
2019-06-26T07:59:08.329Z,100878.95
2019-06-26T08:01:36.910Z,100875.56
2019-06-26T08:04:05.396Z,100879.26
2019-06-26T08:06:33.829Z,100883.59
2019-06-26T08:09:02.401Z,100892.41
2019-06-26T08:11:30.828Z,100887.08
2019-06-26T08:13:59.266Z,100884.68
2019-06-26T08:16:27.718Z,100892.41
2019-06-26T08:18:56.152Z,100890.92
2019-06-26T08:21:24.649Z,100886.36
2019-06-26T08:23:53.209Z,100877.03
2019-06-26T08:26:21.712Z,100886.32
2019-06-26T08:28:50.157Z,100882.16
2019-06-26T08:31:18.702Z,100878.12
2019-06-26T08:33:47.224Z,100880.52
2019-06-26T08:36:15.630Z,100882.45
2019-06-26T08:38:44.206Z,100882.43
2019-06-26T08:41:12.712Z,100882.20
2019-06-26T08:43:41.140Z,100884.67
2019-06-26T08:46:09.744Z,100878.00
2019-06-26T08:48:40.131Z,100880.05
2019-06-26T08:51:08.390Z,100877.69
2019-06-26T08:53:36.845Z,100871.83
2019-06-26T08:56:05.616Z,100868.57
2019-06-26T08:58:34.123Z,100869.43
2019-06-26T09:01:02.730Z,100867.09
2019-06-26T09:03:31.239Z,100868.16
2019-06-26T09:06:00.008Z,100858.74
2019-06-26T09:08:28.793Z,100865.05
2019-06-26T09:10:57.348Z,100860.95
2019-06-26T09:13:25.785Z,100859.55
2019-06-26T09:15:54.265Z,100862.26
2019-06-26T09:18:34.770Z,100859.30
2019-06-26T09:20:52.841Z,100856.45
2019-06-26T09:23:21.292Z,100864.16
2019-06-26T09:25:49.872Z,100865.72
2019-06-26T09:28:18.310Z,100865.95
2019-06-26T09:30:46.770Z,100857.79
2019-06-26T09:33:15.247Z,100862.95
2019-06-26T09:35:43.700Z,100862.59
2019-06-26T09:38:12.188Z,100861.02
2019-06-26T09:40:40.706Z,100866.20
2019-06-26T09:43:09.133Z,100865.34
2019-06-26T09:45:37.618Z,100864.18
2019-06-26T09:48:06.218Z,100870.83
2019-06-26T09:50:34.693Z,100871.22
2019-06-26T09:53:05.414Z,100868.38
2019-06-26T09:55:33.382Z,100871.67
2019-06-26T09:58:01.817Z,100866.63
2019-06-26T10:00:32.028Z,100870.58
2019-06-26T10:03:00.566Z,100869.73
2019-06-26T10:05:28.999Z,100865.51
2019-06-26T10:07:57.627Z,100875.83
2019-06-26T10:10:26.059Z,100882.55
2019-06-26T10:12:54.487Z,100876.53
2019-06-26T10:15:23.240Z,100876.25
2019-06-26T10:17:51.638Z,100874.48
2019-06-26T10:20:20.977Z,100876.73
2019-06-26T10:22:49.501Z,100871.14
2019-06-26T10:25:18.474Z,100880.20
2019-06-26T10:27:46.982Z,100880.34
2019-06-26T10:30:16.232Z,100871.95
2019-06-26T10:32:44.644Z,100878.40
2019-06-26T10:35:13.414Z,100869.92
2019-06-26T10:37:41.954Z,100863.22
2019-06-26T10:40:10.826Z,100869.11
2019-06-26T10:42:39.255Z,100860.26
2019-06-26T10:45:08.697Z,100863.22
2019-06-26T10:47:39.702Z,100859.62
2019-06-26T10:50:08.080Z,100852.25
2019-06-26T10:52:36.621Z,100852.49
2019-06-26T10:55:08.771Z,100850.08
2019-06-26T10:57:37.244Z,100850.63
2019-06-26T11:00:09.723Z,100849.94
2019-06-26T11:02:38.479Z,100848.69
2019-06-26T11:05:07.848Z,100845.61
2019-06-26T11:07:37.245Z,100842.16
2019-06-26T11:10:09.640Z,100840.75
2019-06-26T11:12:38.116Z,100840.06
2019-06-26T11:15:10.258Z,100836.60
2019-06-26T11:17:38.741Z,100828.75
2019-06-26T11:20:08.311Z,100827.88
2019-06-26T11:22:37.155Z,100831.77
2019-06-26T11:25:09.123Z,100828.53
2019-06-26T11:27:37.654Z,100825.17
2019-06-26T11:30:09.009Z,100828.34
2019-06-26T11:32:37.611Z,100822.66
2019-06-26T11:35:09.549Z,100819.90
2019-06-26T11:37:38.170Z,100824.08
2019-06-26T11:40:07.658Z,100826.30
2019-06-26T11:42:37.031Z,100822.67
2019-06-26T11:45:08.893Z,100827.05
2019-06-26T11:47:37.697Z,100820.13
2019-06-26T11:50:11.852Z,100819.43
2019-06-26T11:52:40.651Z,100819.65
2019-06-26T11:55:11.091Z,100821.58
2019-06-26T11:57:39.652Z,100822.59
2019-06-26T12:00:10.885Z,100825.51
2019-06-26T12:02:39.412Z,100817.85
2019-06-26T12:05:08.481Z,100824.05
2019-06-26T12:07:37.009Z,100825.77
2019-06-26T12:10:09.647Z,100818.75
2019-06-26T12:12:38.191Z,100819.42
2019-06-26T12:15:07.834Z,100823.86
2019-06-26T12:17:36.440Z,100816.00
2019-06-26T12:20:17.737Z,100815.50
2019-06-26T12:22:36.772Z,100814.99
2019-06-26T12:25:06.042Z,100812.52
2019-06-26T12:27:34.540Z,100814.15
2019-06-26T12:30:03.375Z,100814.38
2019-06-26T12:32:41.437Z,100812.48
2019-06-26T12:35:02.029Z,100802.63
2019-06-26T12:37:37.622Z,100800.99
2019-06-26T12:40:01.056Z,100809.16
2019-06-26T12:42:29.493Z,100802.91
2019-06-26T12:44:58.027Z,100801.45
2019-06-26T12:47:26.511Z,100794.95
2019-06-26T12:49:54.968Z,100800.36
2019-06-26T12:52:23.429Z,100797.67
2019-06-26T12:54:52.010Z,100794.59
2019-06-26T12:57:20.454Z,100785.81
2019-06-26T12:59:57.262Z,100791.75
2019-06-26T13:02:19.220Z,100785.23
2019-06-26T13:04:47.717Z,100777.77
2019-06-26T13:07:16.276Z,100773.91
2019-06-26T13:09:44.716Z,100776.07
2019-06-26T13:12:13.159Z,100770.45
2019-06-26T13:14:41.689Z,100772.63
2019-06-26T13:17:10.218Z,100770.16
2019-06-26T13:19:38.688Z,100760.11
2019-06-26T13:22:07.144Z,100756.08
2019-06-26T13:24:35.663Z,100759.06
2019-06-26T13:27:05.374Z,100760.13
2019-06-26T13:29:33.965Z,100761.02
2019-06-26T13:32:02.388Z,100760.45
2019-06-26T13:34:30.815Z,100756.90
2019-06-26T13:36:59.285Z,100752.34
2019-06-26T13:39:28.797Z,100756.30
2019-06-26T13:41:57.582Z,100750.84
2019-06-26T13:44:26.121Z,100749.72
2019-06-26T13:46:54.547Z,100758.02
2019-06-26T13:49:22.973Z,100743.61
2019-06-26T13:51:51.441Z,100750.92
2019-06-26T13:54:19.886Z,100749.60
2019-06-26T13:56:48.329Z,100748.95
2019-06-26T13:59:16.787Z,100743.22
2019-06-26T14:01:45.214Z,100740.52
2019-06-26T14:04:13.667Z,100745.26
2019-06-26T14:06:42.124Z,100737.42
2019-06-26T14:09:12.131Z,100734.36
2019-06-26T14:11:40.549Z,100735.75
2019-06-26T14:14:09.026Z,100735.55
2019-06-26T14:16:38.500Z,100731.20
2019-06-26T14:19:07.017Z,100735.39
2019-06-26T14:21:35.483Z,100727.64
2019-06-26T14:24:04.476Z,100730.12
2019-06-26T14:26:33.033Z,100731.47
2019-06-26T14:29:01.451Z,100730.30
2019-06-26T14:31:29.906Z,100730.73
2019-06-26T14:33:58.369Z,100728.94
2019-06-26T14:36:26.874Z,100721.59
2019-06-26T14:38:55.299Z,100723.66
2019-06-26T14:41:23.862Z,100717.09
2019-06-26T14:43:52.485Z,100713.34
2019-06-26T14:46:20.914Z,100711.87
2019-06-26T14:48:49.340Z,100712.63
2019-06-26T14:51:17.925Z,100708.26
2019-06-26T14:53:46.361Z,100711.30
2019-06-26T14:56:14.818Z,100713.58
2019-06-26T14:58:43.470Z,100715.37
2019-06-26T15:01:11.895Z,100706.22
2019-06-26T15:03:40.331Z,100709.19
2019-06-26T15:06:16.298Z,100699.73
2019-06-26T15:08:39.185Z,100700.28
2019-06-26T15:11:07.678Z,100703.12
2019-06-26T15:13:36.202Z,100704.73
2019-06-26T15:16:04.711Z,100702.19
2019-06-26T15:18:33.284Z,100701.61
2019-06-26T15:21:02.248Z,100697.75
2019-06-26T15:23:30.840Z,100693.45
2019-06-26T15:25:59.279Z,100686.47
2019-06-26T15:28:27.924Z,100693.64
2019-06-26T15:30:56.407Z,100688.53
2019-06-26T15:33:24.900Z,100683.02
2019-06-26T15:35:53.346Z,100671.73
2019-06-26T15:38:21.776Z,100672.59
2019-06-26T15:40:50.308Z,100674.30
2019-06-26T15:43:18.745Z,100670.67
2019-06-26T15:45:47.257Z,100672.98
2019-06-26T15:48:15.883Z,100670.73
2019-06-26T15:50:44.406Z,100664.43
2019-06-26T15:53:12.865Z,100655.38
2019-06-26T15:55:41.357Z,100654.80
2019-06-26T15:58:09.782Z,100655.59
2019-06-26T16:00:38.216Z,100658.42
2019-06-26T16:03:06.719Z,100649.77
2019-06-26T16:05:35.194Z,100646.86
2019-06-26T16:08:03.667Z,100646.03
2019-06-26T16:10:34.482Z,100634.58
2019-06-26T16:13:02.402Z,100636.61
2019-06-26T16:15:30.860Z,100635.88
2019-06-26T16:18:06.954Z,100629.63
2019-06-26T16:20:35.457Z,100627.62
2019-06-26T16:23:04.079Z,100627.55
2019-06-26T16:25:32.554Z,100626.01
2019-06-26T16:28:05.746Z,100617.60
2019-06-26T16:30:31.143Z,100620.61
2019-06-26T16:32:59.647Z,100610.96
2019-06-26T16:35:28.080Z,100617.47
2019-06-26T16:37:56.514Z,100611.28
2019-06-26T16:40:25.052Z,100616.08
2019-06-26T16:42:53.473Z,100615.90
2019-06-26T16:45:21.990Z,100616.72
2019-06-26T16:47:50.503Z,100613.68
2019-06-26T16:50:19.140Z,100614.61
2019-06-26T16:52:49.726Z,100618.50
2019-06-26T16:55:18.218Z,100614.38
2019-06-26T16:57:46.640Z,100617.58
2019-06-26T17:00:17.778Z,100620.60
2019-06-26T17:02:46.312Z,100616.42
2019-06-26T17:05:15.150Z,100622.84
2019-06-26T17:07:43.559Z,100611.01
2019-06-26T17:10:12.557Z,100615.98
2019-06-26T17:12:41.093Z,100617.52
2019-06-26T17:15:09.796Z,100616.93
2019-06-26T17:17:38.539Z,100623.34
2019-06-26T17:20:07.294Z,100620.77
2019-06-26T17:22:35.730Z,100622.17
2019-06-26T17:25:05.630Z,100621.27
2019-06-26T17:27:34.188Z,100621.68
2019-06-26T17:30:03.235Z,100623.55
2019-06-26T17:32:31.715Z,100625.37
2019-06-26T17:35:00.172Z,100629.75
2019-06-26T17:37:28.571Z,100621.48
2019-06-26T17:39:57.099Z,100622.44
2019-06-26T17:42:25.610Z,100629.48
2019-06-26T17:44:54.042Z,100623.20
2019-06-26T17:47:22.510Z,100628.30
2019-06-26T17:49:50.939Z,100627.13
2019-06-26T17:52:19.449Z,100628.83
2019-06-26T17:54:47.936Z,100626.08
2019-06-26T17:57:16.403Z,100622.64
2019-06-26T17:59:44.949Z,100623.71
2019-06-26T18:02:13.509Z,100628.52
2019-06-26T18:04:41.944Z,100627.55
2019-06-26T18:07:10.476Z,100626.03
2019-06-26T18:09:38.979Z,100627.66
2019-06-26T18:12:07.482Z,100628.69
2019-06-26T18:14:35.933Z,100633.09
2019-06-26T18:17:20.890Z,100640.14
2019-06-26T18:19:34.790Z,100634.01
2019-06-26T18:22:03.307Z,100642.95
2019-06-26T18:24:31.859Z,100643.23
2019-06-26T18:27:00.291Z,100637.52
2019-06-26T18:29:28.786Z,100649.17
2019-06-26T18:31:57.323Z,100650.16
2019-06-26T18:34:25.760Z,100647.88
2019-06-26T18:36:54.182Z,100652.64
2019-06-26T18:39:22.691Z,100654.09
2019-06-26T18:41:51.191Z,100654.13
2019-06-26T18:44:19.656Z,100654.97
2019-06-26T18:46:48.113Z,100662.70
2019-06-26T18:49:16.563Z,100663.09
2019-06-26T18:51:45.091Z,100665.45
2019-06-26T18:54:13.690Z,100660.87
2019-06-26T18:56:42.191Z,100663.30
2019-06-26T18:59:10.624Z,100665.84
2019-06-26T19:01:39.286Z,100666.10
2019-06-26T19:04:07.717Z,100668.78
2019-06-26T19:06:36.146Z,100665.68
2019-06-26T19:09:06.861Z,100668.83
2019-06-26T19:11:35.286Z,100663.01
2019-06-26T19:14:03.876Z,100673.66
2019-06-26T19:16:36.025Z,100672.90
2019-06-26T19:19:02.563Z,100672.31
2019-06-26T19:21:31.013Z,100678.00
2019-06-26T19:24:09.556Z,100675.11
2019-06-26T19:26:29.639Z,100676.66
2019-06-26T19:28:58.143Z,100677.25
2019-06-26T19:31:26.870Z,100683.28
2019-06-26T19:33:55.307Z,100688.97
2019-06-26T19:36:28.282Z,100689.33
2019-06-26T19:38:54.347Z,100689.98
2019-06-26T19:41:22.777Z,100697.22
2019-06-26T19:43:51.226Z,100694.47
2019-06-26T19:46:19.710Z,100705.33
2019-06-26T19:48:48.139Z,100702.21
2019-06-26T19:51:16.713Z,100699.80
2019-06-26T19:53:45.173Z,100708.08
2019-06-26T19:56:13.692Z,100713.89
2019-06-26T19:58:42.145Z,100713.06
2019-06-26T20:01:10.627Z,100719.93
2019-06-26T20:03:39.066Z,100725.39
2019-06-26T20:06:07.566Z,100726.16
2019-06-26T20:08:51.448Z,100729.42
2019-06-26T20:11:06.301Z,100730.17
2019-06-26T20:13:34.725Z,100729.45
2019-06-26T20:16:03.361Z,100726.70
2019-06-26T20:18:31.871Z,100734.53
2019-06-26T20:21:00.310Z,100731.70
2019-06-26T20:23:28.762Z,100732.72
2019-06-26T20:25:57.284Z,100734.36
2019-06-26T20:28:25.733Z,100735.02
2019-06-26T20:30:54.307Z,100735.56
2019-06-26T20:33:22.732Z,100738.95
2019-06-26T20:35:51.168Z,100738.17
2019-06-26T20:38:19.743Z,100741.26
2019-06-26T20:40:48.248Z,100738.14
2019-06-26T20:43:16.732Z,100735.53
2019-06-26T20:45:45.262Z,100747.97
2019-06-26T20:48:13.758Z,100744.16
2019-06-26T20:50:42.177Z,100747.67
2019-06-26T20:53:10.754Z,100746.81
2019-06-26T20:55:39.191Z,100752.47
2019-06-26T20:58:07.621Z,100751.36
2019-06-26T21:00:36.150Z,100759.20
2019-06-26T21:03:04.668Z,100761.75
2019-06-26T21:05:33.090Z,100776.00
2019-06-26T21:08:01.585Z,100771.06
2019-06-26T21:10:30.031Z,100770.70
2019-06-26T21:12:58.466Z,100782.23
2019-06-26T21:15:26.938Z,100789.61
2019-06-26T21:17:55.437Z,100784.45
2019-06-26T21:20:23.868Z,100784.69
2019-06-26T21:22:52.513Z,100788.00
2019-06-26T21:25:20.962Z,100782.77
2019-06-26T21:27:49.414Z,100782.37
2019-06-26T21:30:18.997Z,100780.77
2019-06-26T21:32:47.436Z,100785.19
2019-06-26T21:35:15.862Z,100786.61
2019-06-26T21:37:44.540Z,100800.02
2019-06-26T21:40:13.649Z,100804.48
2019-06-26T21:42:42.103Z,100803.31
2019-06-26T21:45:11.107Z,100811.69
2019-06-26T21:47:39.545Z,100813.27
2019-06-26T21:50:08.219Z,100816.92
2019-06-26T21:52:36.851Z,100823.23
2019-06-26T21:55:06.617Z,100818.71
2019-06-26T21:57:35.057Z,100817.06
2019-06-26T22:00:04.815Z,100821.33
2019-06-26T22:02:33.382Z,100826.78
2019-06-26T22:05:01.881Z,100823.92
2019-06-26T22:07:30.493Z,100827.83
2019-06-26T22:09:58.945Z,100825.28
2019-06-26T22:12:27.445Z,100834.09
2019-06-26T22:14:56.154Z,100828.52
2019-06-26T22:17:24.653Z,100821.48
2019-06-26T22:19:53.087Z,100819.25
2019-06-26T22:22:21.543Z,100822.66
2019-06-26T22:24:50.053Z,100820.47
2019-06-26T22:27:18.478Z,100819.38
2019-06-26T22:29:47.152Z,100814.56
2019-06-26T22:32:15.653Z,100826.77
2019-06-26T22:34:44.363Z,100837.41
2019-06-26T22:37:14.322Z,100830.58
2019-06-26T22:39:42.759Z,100842.36
2019-06-26T22:42:11.181Z,100844.23
2019-06-26T22:44:39.661Z,100846.29
2019-06-26T22:47:08.077Z,100850.07
2019-06-26T22:49:36.579Z,100851.52
2019-06-26T22:52:05.214Z,100851.03
2019-06-26T22:54:33.646Z,100854.55
2019-06-26T22:57:02.087Z,100851.53
2019-06-26T22:59:30.554Z,100850.95
2019-06-26T23:01:58.987Z,100855.78
2019-06-26T23:04:27.418Z,100855.95
2019-06-26T23:06:55.943Z,100856.91
2019-06-26T23:09:24.379Z,100857.28
2019-06-26T23:11:52.834Z,100850.97
2019-06-26T23:14:21.371Z,100860.50
2019-06-26T23:16:49.799Z,100856.42
2019-06-26T23:19:18.225Z,100861.00
2019-06-26T23:21:46.793Z,100862.00
2019-06-26T23:26:43.892Z,100864.64
2019-06-26T23:29:12.478Z,100866.17
2019-06-26T23:31:40.905Z,100864.08
2019-06-26T23:34:09.337Z,100861.71
2019-06-26T23:36:37.802Z,100871.62
2019-06-26T23:39:06.307Z,100872.58
2019-06-26T23:41:34.798Z,100869.19
2019-06-26T23:44:03.257Z,100873.48
2019-06-26T23:46:31.709Z,100877.09
2019-06-26T23:49:00.146Z,100880.34
2019-06-26T23:51:28.621Z,100877.27
2019-06-26T23:53:57.058Z,100876.88
2019-06-26T23:56:39.556Z,100881.09
2019-06-26T23:58:55.789Z,100880.23
